Main page
METAR-TAF:

METAR-TAF

Airports :

Yerevan, Armenia

Zvartnots International Airport

latitude: 40-08-50N, longitude: 044-23-45E, elevation: 865 m

Current weather observation

The report was made 10 minutes ago, at 03:30 UTC
Wind 5 kt from the Southeast
Temperature 12°C
Humidity 62%
Pressure 1019 hPa
Visibility 10 km or more

METAR: UDYZ 290330Z 14005KT 9999 NSC 12/05 Q1019 R09/010070 NOSIG

Time: 07:40 (03:40 UTC)

Forecast

The report was made 4 hours and 35 minutes ago, at 23:05 UTC
Forecast valid from 29 at 00 UTC to 29 at 24 UTC
Wind 6 kt from the South
Visibility 10 km or more
Scattered clouds at a height of 4000 ft
Scattered clouds at a height of 10000 ft
Temporary
from 29 at 07 UTC to 29 at 18 UTC
Wind 24 kt from variable directions
Broken clouds at a height of 3000 ft, Cumulonimbus.
thunderstorm, light rain

TAF: UDYZ 282305Z 2900/2924 17006KT 9999 SCT040 SCT100 TEMPO 2907/2918 VRB24KT -TSRA BKN030CB

Weather observations and forecasts of more than 4000 airports (METAR and TAF reports).

The available stations are represented by yellow and red dots on the map.

Hover mouse over dot to see the name of the station.

Then click to see weather observations and forecasts.

To change the map : click on the green buttons with a black cross to zoom in, on the green button with a dash to zoom out, or on the green arrows for adjacent maps.


METAR-TAF: